createdAt,value
2017-07-04T00:00:47.981Z,42.1
2017-07-04T00:01:49.789Z,41.9
2017-07-04T00:02:51.592Z,41.9
2017-07-04T00:03:53.034Z,41.7
2017-07-04T00:04:55.168Z,42
2017-07-04T00:05:56.609Z,41.9
2017-07-04T00:06:58.441Z,41.9
2017-07-04T00:07:59.884Z,42.1
2017-07-04T00:09:02.017Z,41.9
2017-07-04T00:10:03.815Z,41.9
2017-07-04T00:11:05.617Z,41.9
2017-07-04T00:12:07.751Z,41.9
2017-07-04T00:13:09.886Z,42.1
2017-07-04T00:14:11.686Z,41.8
2017-07-04T00:15:13.154Z,41.7
2017-07-04T00:16:14.954Z,41.9
2017-07-04T00:17:17.086Z,41.8
2017-07-04T00:18:18.864Z,41.9
2017-07-04T00:19:20.643Z,41.7
2017-07-04T00:20:21.832Z,41.8
2017-07-04T00:21:23.295Z,41.8
2017-07-04T00:22:24.759Z,42
2017-07-04T00:23:26.537Z,42
2017-07-04T00:24:28.670Z,42.2
2017-07-04T00:25:30.806Z,42
2017-07-04T00:26:32.585Z,41.8
2017-07-04T00:27:33.691Z,42
2017-07-04T00:28:35.488Z,42.2
2017-07-04T00:29:37.619Z,42
2017-07-04T00:30:39.764Z,41.8
2017-07-04T00:31:40.861Z,42
2017-07-04T00:32:42.994Z,41.9
2017-07-04T00:33:45.133Z,42
2017-07-04T00:34:46.932Z,41.7
2017-07-04T00:35:48.376Z,41.7
2017-07-04T00:36:50.175Z,41.8
2017-07-04T00:37:52.310Z,41.7
2017-07-04T00:38:53.413Z,42
2017-07-04T00:39:55.212Z,42
2017-07-04T00:40:56.320Z,42.2
2017-07-04T00:41:58.120Z,41.8
2017-07-04T00:42:59.563Z,41.9
2017-07-04T00:44:01.696Z,41.9
2017-07-04T00:45:03.845Z,42.1
2017-07-04T00:46:05.644Z,42.2
2017-07-04T00:47:07.086Z,42.1
2017-07-04T00:48:08.888Z,42.1
2017-07-04T00:49:11.021Z,41.9
2017-07-04T00:50:12.487Z,42.2
2017-07-04T00:51:14.287Z,42.2
2017-07-04T00:52:16.420Z,42
2017-07-04T00:53:18.217Z,42.2
2017-07-04T00:54:19.328Z,42.1
2017-07-04T00:55:21.459Z,42.1
2017-07-04T00:56:23.258Z,42
2017-07-04T00:57:24.377Z,42.1
2017-07-04T00:58:26.154Z,42
2017-07-04T00:59:27.954Z,42.3
2017-07-04T01:00:29.732Z,42.1
2017-07-04T01:01:31.866Z,42.4
2017-07-04T01:02:33.313Z,42.2
2017-07-04T01:03:35.450Z,42.2
2017-07-04T01:04:36.893Z,42.2
2017-07-04T01:05:38.693Z,42.1
2017-07-04T01:06:40.469Z,42.5
2017-07-04T01:07:41.932Z,42.2
2017-07-04T01:08:43.379Z,42.2
2017-07-04T01:09:45.180Z,42.1
2017-07-04T01:10:46.646Z,42.5
2017-07-04T01:11:47.775Z,42.5
2017-07-04T01:12:49.556Z,42.5
2017-07-04T01:13:51.007Z,42.2
2017-07-04T01:14:53.142Z,42.2
2017-07-04T01:15:55.277Z,42.3
2017-07-04T01:16:56.740Z,42.3
2017-07-04T01:17:58.537Z,42.5
2017-07-04T01:18:59.983Z,42.3
2017-07-04T01:20:02.117Z,42.1
2017-07-04T01:21:03.590Z,42.3
2017-07-04T01:22:05.716Z,42.3
2017-07-04T01:23:07.873Z,42.3
2017-07-04T01:24:09.337Z,42.3
2017-07-04T01:25:10.111Z,42.2
2017-07-04T01:26:11.910Z,42.3
2017-07-04T01:27:13.690Z,42.3
2017-07-04T01:28:15.825Z,42.2
2017-07-04T01:29:16.953Z,42.3
2017-07-04T01:30:18.749Z,42.1
2017-07-04T01:31:20.197Z,42.2
2017-07-04T01:32:22.329Z,42.2
2017-07-04T01:33:24.134Z,42.2
2017-07-04T01:34:26.264Z,42.2
2017-07-04T01:35:28.074Z,42
2017-07-04T01:36:29.876Z,42
2017-07-04T01:37:30.985Z,42.1
2017-07-04T01:38:33.119Z,42.1
2017-07-04T01:39:34.921Z,42.5
2017-07-04T01:40:37.053Z,42.1
2017-07-04T01:41:38.496Z,42.1
2017-07-04T01:42:39.631Z,42.4
2017-07-04T01:43:41.094Z,42.3
2017-07-04T01:44:42.952Z,42.4
2017-07-04T01:45:44.085Z,42.5
2017-07-04T01:46:45.551Z,42.5
2017-07-04T01:47:47.349Z,42.5
2017-07-04T01:48:48.811Z,42.1
2017-07-04T01:49:50.589Z,42.3
2017-07-04T01:50:52.723Z,42.1
2017-07-04T01:51:54.858Z,42.3
2017-07-04T01:52:56.660Z,42.4
2017-07-04T01:53:58.459Z,42.3
2017-07-04T01:55:00.259Z,42.3
2017-07-04T01:56:01.704Z,42.3
2017-07-04T01:57:03.506Z,42.2
2017-07-04T01:59:38.529Z,42.5
2017-07-04T02:00:39.636Z,42.5
2017-07-04T02:01:41.809Z,42.3
2017-07-04T02:02:43.650Z,42.3
2017-07-04T02:03:45.100Z,42.5
2017-07-04T02:04:46.945Z,42.4
2017-07-04T02:05:48.385Z,42.6
2017-07-04T02:06:50.210Z,42.6
2017-07-04T02:07:51.320Z,42.6
2017-07-04T02:08:52.785Z,42.5
2017-07-04T02:09:54.960Z,42.3
2017-07-04T02:10:57.093Z,42.6
2017-07-04T02:11:58.903Z,42.6
2017-07-04T02:13:00.344Z,42.4
2017-07-04T02:14:02.205Z,42.4
2017-07-04T02:15:02.979Z,42.4
2017-07-04T02:16:04.761Z,42.6
2017-07-04T02:17:06.898Z,42.6
2017-07-04T02:18:08.707Z,42.8
2017-07-04T02:19:10.505Z,42.7
2017-07-04T02:20:12.280Z,42.7
2017-07-04T02:21:13.727Z,42.5
2017-07-04T02:22:14.842Z,42.6
2017-07-04T02:23:16.641Z,42.7
2017-07-04T02:24:18.110Z,42.6
2017-07-04T02:25:19.551Z,42.6
2017-07-04T02:26:21.349Z,42.7
2017-07-04T02:27:23.149Z,42.8
2017-07-04T02:28:24.971Z,42.6
2017-07-04T02:29:26.435Z,42.6
2017-07-04T02:30:27.878Z,42.8
2017-07-04T02:31:30.013Z,42.6
2017-07-04T02:32:31.811Z,42.5
2017-07-04T02:33:33.619Z,42.9
2017-07-04T02:34:35.411Z,42.9
2017-07-04T02:35:36.517Z,42.8
2017-07-04T02:36:38.318Z,42.7
2017-07-04T02:37:40.117Z,42.8
2017-07-04T02:38:42.253Z,42.9
2017-07-04T02:39:44.387Z,42.6
2017-07-04T02:40:46.268Z,42.4
2017-07-04T02:41:48.046Z,42.9
2017-07-04T02:42:49.510Z,42.8
2017-07-04T02:43:51.670Z,42.6
2017-07-04T02:44:53.473Z,42.6
2017-07-04T02:45:55.608Z,42.5
2017-07-04T02:46:57.407Z,42.5
2017-07-04T02:47:59.206Z,42.5
2017-07-04T02:49:00.336Z,42.6
2017-07-04T02:50:01.475Z,42.5
2017-07-04T02:51:03.259Z,42.5
2017-07-04T02:52:05.059Z,42.5
2017-07-04T02:53:06.860Z,42.6
2017-07-04T02:54:08.658Z,42.6
2017-07-04T02:55:10.103Z,42.8
2017-07-04T02:56:11.902Z,42.6
2017-07-04T02:57:13.348Z,42.6
2017-07-04T02:58:14.816Z,42.6
2017-07-04T02:59:16.618Z,42.7
2017-07-04T03:00:17.726Z,42.6
2017-07-04T03:01:18.836Z,42.7
2017-07-04T03:02:20.288Z,42.9
2017-07-04T03:03:22.421Z,42.7
2017-07-04T03:04:24.220Z,43
2017-07-04T03:05:25.667Z,42.7
2017-07-04T03:06:27.111Z,42.7
2017-07-04T03:07:28.555Z,42.8
2017-07-04T03:08:30.357Z,42.8
2017-07-04T03:09:31.803Z,42.8
2017-07-04T03:10:33.938Z,42.8
2017-07-04T03:11:35.737Z,42.9
2017-07-04T03:12:37.202Z,42.5
2017-07-04T03:13:39.002Z,42.8
2017-07-04T03:14:40.110Z,42.7
2017-07-04T03:15:42.242Z,43
2017-07-04T03:16:43.706Z,42.8
2017-07-04T03:17:45.170Z,42.8
2017-07-04T03:18:46.971Z,42.8
2017-07-04T03:19:48.774Z,42.8
2017-07-04T03:20:50.909Z,43
2017-07-04T03:21:52.711Z,42.7
2017-07-04T03:22:54.487Z,42.8
2017-07-04T03:23:56.272Z,42.8
2017-07-04T03:24:57.387Z,42.7
2017-07-04T03:25:59.186Z,42.7
2017-07-04T03:27:00.627Z,42.8
2017-07-04T03:28:02.427Z,42.7
2017-07-04T03:29:03.870Z,42.7
2017-07-04T03:30:04.998Z,42.6
2017-07-04T03:31:07.132Z,42.9
2017-07-04T03:32:09.267Z,42.8
2017-07-04T03:33:11.423Z,42.7
2017-07-04T03:34:13.558Z,42.7
2017-07-04T03:35:15.695Z,42.7
2017-07-04T03:36:17.494Z,42.7
2017-07-04T03:37:18.937Z,42.7
2017-07-04T03:38:21.070Z,42.7
2017-07-04T03:39:22.871Z,42.7
2017-07-04T03:40:24.671Z,42.8
2017-07-04T03:41:26.468Z,42.6
2017-07-04T03:42:28.248Z,42.7
2017-07-04T03:43:30.048Z,42.8
2017-07-04T03:44:31.827Z,42.7
2017-07-04T03:45:33.269Z,42.7
2017-07-04T03:46:34.739Z,42.9
2017-07-04T03:47:36.514Z,42.7
2017-07-04T03:48:38.652Z,42.6
2017-07-04T03:49:40.447Z,42.7
2017-07-04T03:50:42.583Z,42.7
2017-07-04T03:51:44.053Z,42.7
2017-07-04T03:52:45.513Z,42.7
2017-07-04T03:53:46.957Z,42.6
2017-07-04T03:54:48.755Z,42.6
2017-07-04T03:55:50.557Z,42.7
2017-07-04T03:56:52.361Z,42.6
2017-07-04T03:57:54.155Z,42.7
2017-07-04T03:58:55.961Z,42.8
2017-07-04T03:59:57.429Z,42.8
2017-07-04T04:00:58.877Z,42.9
2017-07-04T04:02:00.680Z,42.7
2017-07-04T04:03:02.141Z,42.6
2017-07-04T04:04:03.943Z,42.8
2017-07-04T04:05:06.076Z,42.7
2017-07-04T04:06:07.874Z,42.6
2017-07-04T04:07:09.656Z,42.7
2017-07-04T04:08:11.792Z,42.8
2017-07-04T04:09:13.930Z,42.7
2017-07-04T04:10:15.735Z,42.5
2017-07-04T04:11:17.867Z,42.7
2017-07-04T04:12:20.004Z,42.7
2017-07-04T04:13:22.141Z,42.8
2017-07-04T04:14:24.276Z,42.6
2017-07-04T04:15:25.724Z,42.7
2017-07-04T04:16:27.866Z,42.7
2017-07-04T04:17:29.369Z,42.7
2017-07-04T04:18:31.506Z,42.6
2017-07-04T04:19:33.640Z,43
2017-07-04T04:20:35.441Z,42.7
2017-07-04T04:21:37.245Z,42.8
2017-07-04T04:22:39.023Z,42.6
2017-07-04T04:23:40.838Z,42.7
2017-07-04T04:24:42.966Z,42.7
2017-07-04T04:25:44.778Z,42.7
2017-07-04T04:26:46.569Z,42.8
2017-07-04T04:27:47.687Z,42.7
2017-07-04T04:28:49.490Z,42.9
2017-07-04T04:29:50.984Z,42.8
2017-07-04T04:30:52.428Z,42.7
2017-07-04T04:31:54.230Z,42.9
2017-07-04T04:32:56.026Z,42.4
2017-07-04T04:33:57.473Z,42.3
2017-07-04T04:34:59.605Z,42
2017-07-04T04:36:01.390Z,42
2017-07-04T04:37:03.172Z,42
2017-07-04T04:38:05.304Z,41.8
2017-07-04T04:39:07.447Z,41.7
2017-07-04T04:40:08.566Z,41.7
2017-07-04T04:41:09.336Z,41.6
2017-07-04T04:42:11.183Z,41.5
2017-07-04T04:43:13.321Z,41.3
2017-07-04T04:44:15.461Z,41.3
2017-07-04T04:45:16.904Z,41.4
2017-07-04T04:46:19.041Z,41.4
2017-07-04T04:47:20.844Z,41.3
2017-07-04T04:48:22.289Z,41.3
2017-07-04T04:49:23.735Z,41.2
2017-07-04T04:50:25.871Z,41.3
2017-07-04T04:51:27.673Z,41.5
2017-07-04T04:52:29.473Z,41.1
2017-07-04T04:53:31.274Z,41.1
2017-07-04T04:54:33.412Z,41.3
2017-07-04T04:55:35.549Z,41.2
2017-07-04T04:56:36.657Z,40.9
2017-07-04T04:57:38.458Z,41.3
2017-07-04T04:58:40.594Z,41.2
2017-07-04T04:59:42.038Z,40.9
2017-07-04T05:00:43.487Z,41.2
2017-07-04T05:01:44.955Z,40.4
2017-07-04T05:02:46.060Z,40.5
2017-07-04T05:03:47.166Z,41
2017-07-04T05:04:48.968Z,41.2
2017-07-04T05:05:50.770Z,40.8
2017-07-04T05:06:52.909Z,40.9
2017-07-04T05:07:54.711Z,40.8
2017-07-04T05:08:56.848Z,40.5
2017-07-04T05:09:58.625Z,40.6
2017-07-04T05:11:00.090Z,40.6
2017-07-04T05:12:01.892Z,40.7
2017-07-04T05:13:03.692Z,41
2017-07-04T05:14:05.159Z,40.9
2017-07-04T05:15:06.941Z,40.8
2017-07-04T05:16:08.386Z,41.1
2017-07-04T05:17:09.831Z,41.1
2017-07-04T05:18:11.633Z,41
2017-07-04T05:19:12.765Z,40.9
2017-07-04T05:20:14.906Z,40.9
2017-07-04T05:21:16.381Z,40.9
2017-07-04T05:22:18.516Z,40.7
2017-07-04T05:23:20.321Z,40.8
2017-07-04T05:24:22.459Z,41
2017-07-04T05:25:24.261Z,40.5
2017-07-04T05:26:26.397Z,41.2
2017-07-04T05:27:28.177Z,40.8
2017-07-04T05:28:29.310Z,40.7
2017-07-04T05:29:31.089Z,40.2
2017-07-04T05:30:32.198Z,40.8
2017-07-04T05:31:34.002Z,40.8
2017-07-04T05:32:35.447Z,40.7
2017-07-04T05:33:37.583Z,41.2
2017-07-04T05:34:39.727Z,41.2
2017-07-04T05:35:41.193Z,40.7
2017-07-04T05:36:42.301Z,41
2017-07-04T05:37:44.439Z,41
2017-07-04T05:38:45.884Z,40.8
2017-07-04T05:39:47.686Z,41
2017-07-04T05:40:49.467Z,41.6
2017-07-04T05:41:51.267Z,41.5
2017-07-04T05:42:53.076Z,41.5
2017-07-04T05:43:54.522Z,41.3
2017-07-04T05:44:56.663Z,41.4
2017-07-04T05:45:58.466Z,41.6
2017-07-04T05:46:59.578Z,41.4
2017-07-04T05:48:01.714Z,41.4
2017-07-04T05:49:03.183Z,41
2017-07-04T05:50:04.987Z,41.4
2017-07-04T05:51:06.096Z,41.3
2017-07-04T05:52:07.898Z,41.4
2017-07-04T05:53:10.035Z,41.4
2017-07-04T05:54:12.177Z,41.2
2017-07-04T05:55:13.981Z,41.3
2017-07-04T05:56:15.427Z,41.5
2017-07-04T05:57:17.230Z,41.2
2017-07-04T05:58:19.016Z,41.1
2017-07-04T05:59:21.165Z,41.3
2017-07-04T06:00:22.276Z,41.3
2017-07-04T06:01:23.387Z,41.4
2017-07-04T06:02:24.834Z,41.5
2017-07-04T06:03:26.970Z,41.5
2017-07-04T06:04:28.775Z,41.3
2017-07-04T06:05:30.577Z,41.4
2017-07-04T06:06:32.040Z,41.4
2017-07-04T06:07:33.514Z,41.4
2017-07-04T06:08:34.980Z,41.2
2017-07-04T06:09:36.427Z,41.5
2017-07-04T06:10:38.231Z,41.6
2017-07-04T06:11:40.038Z,41.7
2017-07-04T06:12:41.508Z,41.2
2017-07-04T06:13:43.309Z,41.6
2017-07-04T06:14:45.443Z,41.3
2017-07-04T06:15:47.245Z,41.8
2017-07-04T06:16:48.718Z,41.6
2017-07-04T06:17:50.522Z,41.6
2017-07-04T06:18:52.310Z,41.3
2017-07-04T06:19:54.448Z,41.5
2017-07-04T06:20:55.895Z,41.3
2017-07-04T06:21:58.036Z,41.5
2017-07-04T06:22:59.498Z,41.5
2017-07-04T06:24:01.301Z,41.8
2017-07-04T06:25:02.750Z,41.6
2017-07-04T06:26:03.860Z,41.3
2017-07-04T06:27:05.663Z,41.3
2017-07-04T06:28:07.444Z,41.5
2017-07-04T06:29:09.248Z,41.8
2017-07-04T06:30:10.703Z,41.4
2017-07-04T06:31:12.845Z,41.5
2017-07-04T06:32:14.645Z,41.1
2017-07-04T06:33:16.430Z,41.3
2017-07-04T06:34:18.233Z,41.3
2017-07-04T06:35:20.036Z,41
2017-07-04T06:36:22.171Z,41.3
2017-07-04T06:37:23.974Z,41.1
2017-07-04T06:38:25.778Z,41.3
2017-07-04T06:39:27.576Z,41.1
2017-07-04T06:40:29.062Z,41.5
2017-07-04T06:41:30.523Z,41.2
2017-07-04T06:42:32.330Z,41.2
2017-07-04T06:43:33.463Z,41.5
2017-07-04T06:44:34.578Z,41.2
2017-07-04T06:45:36.383Z,41.4
2017-07-04T06:46:37.156Z,41
2017-07-04T06:47:39.291Z,41.6
2017-07-04T06:48:41.093Z,41.6
2017-07-04T06:49:42.894Z,41.6
2017-07-04T06:50:44.010Z,41.3
2017-07-04T06:51:45.525Z,40.8
2017-07-04T06:52:47.325Z,41.4
2017-07-04T06:53:49.126Z,41.2
2017-07-04T06:54:50.573Z,41.4
2017-07-04T06:55:52.376Z,41.5
2017-07-04T06:56:54.156Z,41
2017-07-04T06:57:55.961Z,41.1
2017-07-04T06:58:58.097Z,41.2
2017-07-04T06:59:59.208Z,41.5
2017-07-04T07:01:00.651Z,41.3
2017-07-04T07:02:02.452Z,41.4
2017-07-04T07:03:03.894Z,41.3
2017-07-04T07:04:05.699Z,41.1
2017-07-04T07:05:07.500Z,41.5
2017-07-04T07:06:09.303Z,41.3
2017-07-04T07:07:10.772Z,41.5
2017-07-04T07:08:12.572Z,41.5
2017-07-04T07:09:14.809Z,41
2017-07-04T07:10:16.276Z,41.1
2017-07-04T07:11:18.084Z,41.3
2017-07-04T07:12:20.219Z,41.3
2017-07-04T07:13:21.661Z,41.1
2017-07-04T07:14:23.799Z,41.1
2017-07-04T07:15:25.934Z,41
2017-07-04T07:16:28.075Z,41.2
2017-07-04T07:17:30.209Z,41.6
2017-07-04T07:18:32.014Z,41.4
2017-07-04T07:19:33.814Z,41.2
2017-07-04T07:20:35.950Z,41.1
2017-07-04T07:21:37.064Z,41.1
2017-07-04T07:22:38.532Z,41.1
2017-07-04T07:23:40.670Z,41.1
2017-07-04T07:24:42.137Z,41.6
2017-07-04T07:25:43.602Z,41.1
2017-07-04T07:26:45.406Z,41.5
2017-07-04T07:27:47.213Z,41.4
2017-07-04T07:28:49.345Z,41.4
2017-07-04T07:29:51.122Z,41.4
2017-07-04T07:30:52.904Z,41.2
2017-07-04T07:31:54.352Z,41.3
2017-07-04T07:32:56.158Z,41.3
2017-07-04T07:33:57.934Z,41.2
2017-07-04T07:34:59.064Z,41.3
2017-07-04T07:36:00.843Z,41
2017-07-04T07:37:02.988Z,41.4
2017-07-04T07:38:04.789Z,40.9
2017-07-04T07:39:06.234Z,41.4
2017-07-04T07:40:08.080Z,41.4
2017-07-04T07:41:09.549Z,41.2
2017-07-04T07:42:11.327Z,41.1
2017-07-04T07:43:13.110Z,41.1
2017-07-04T07:44:15.252Z,41.4
2017-07-04T07:45:16.361Z,41.3
2017-07-04T07:46:18.167Z,41.5
2017-07-04T07:47:20.303Z,41
2017-07-04T07:48:22.106Z,41
2017-07-04T07:49:23.574Z,41.3
2017-07-04T07:50:25.040Z,41.6
2017-07-04T07:51:27.181Z,41.3
2017-07-04T07:52:29.024Z,41.2
2017-07-04T07:53:30.823Z,41.3
2017-07-04T07:54:32.961Z,41.5
2017-07-04T07:55:34.815Z,41.5
2017-07-04T07:56:36.262Z,41.4
2017-07-04T07:57:37.733Z,41.1
2017-07-04T07:58:39.867Z,41.5
2017-07-04T07:59:41.676Z,41.4
2017-07-04T08:00:43.821Z,41.4
2017-07-04T08:01:45.618Z,41.5
2017-07-04T08:02:47.422Z,41.3
2017-07-04T08:03:49.560Z,41.4
2017-07-04T08:04:51.693Z,41.3
2017-07-04T08:05:53.497Z,41.5
2017-07-04T08:06:54.943Z,41.4
2017-07-04T08:07:56.744Z,41.4
2017-07-04T08:08:58.213Z,41.4
2017-07-04T08:09:59.657Z,41.4
2017-07-04T08:11:01.792Z,41.3
2017-07-04T08:12:03.241Z,41.3
2017-07-04T08:13:04.349Z,41.3
2017-07-04T08:14:06.488Z,41.7
2017-07-04T08:15:08.266Z,41.4
2017-07-04T08:16:10.401Z,41.5
2017-07-04T08:17:12.178Z,41.3
2017-07-04T08:18:13.979Z,41.3
2017-07-04T08:19:16.119Z,41.5
2017-07-04T08:20:18.253Z,41.6
2017-07-04T08:21:20.394Z,41.4
2017-07-04T08:22:21.843Z,41.3
2017-07-04T08:23:23.314Z,41.4
2017-07-04T08:24:25.123Z,41.4
2017-07-04T08:25:26.921Z,41.3
2017-07-04T08:26:29.056Z,41.4
2017-07-04T08:27:30.498Z,41.4
2017-07-04T08:28:32.635Z,41.4
2017-07-04T08:29:34.774Z,41.4
2017-07-04T08:30:36.911Z,41.3
2017-07-04T08:31:38.024Z,41.3
2017-07-04T08:32:40.162Z,41.2
2017-07-04T08:33:41.941Z,41.6
2017-07-04T08:34:43.065Z,41.7
2017-07-04T08:35:44.854Z,41.4
2017-07-04T08:36:45.965Z,41.5
2017-07-04T08:37:47.074Z,41.5
2017-07-04T08:38:48.520Z,41.1
2017-07-04T08:39:49.992Z,41.5
2017-07-04T08:40:52.129Z,41.4
2017-07-04T08:41:53.930Z,41.5
2017-07-04T08:42:56.068Z,41.4
2017-07-04T08:43:57.871Z,41.8
2017-07-04T08:44:59.673Z,41.4
2017-07-04T08:46:01.119Z,41.2
2017-07-04T08:47:02.926Z,41.7
2017-07-04T08:48:04.732Z,41.4
2017-07-04T08:49:06.532Z,41.1
2017-07-04T08:50:08.331Z,41.1
2017-07-04T08:51:10.134Z,41.5
2017-07-04T08:52:11.944Z,41.7
2017-07-04T08:53:13.393Z,41.4
2017-07-04T08:54:14.861Z,41.3
2017-07-04T08:55:15.972Z,41.5
2017-07-04T08:56:17.780Z,41.5
2017-07-04T08:57:19.582Z,41.1
2017-07-04T08:58:20.715Z,41.1
2017-07-04T08:59:22.855Z,41.1
2017-07-04T09:00:24.654Z,41.1
2017-07-04T09:01:26.462Z,41.4
2017-07-04T09:02:27.929Z,41.5
2017-07-04T09:03:30.064Z,41.3
2017-07-04T09:04:32.201Z,41.5
2017-07-04T09:05:34.005Z,41.4
2017-07-04T09:06:35.803Z,41.4
2017-07-04T09:07:37.656Z,41.4
2017-07-04T09:08:39.126Z,41.4
2017-07-04T09:09:41.262Z,41.4
2017-07-04T09:10:42.729Z,41.4
2017-07-04T09:11:44.175Z,41.4
2017-07-04T09:12:45.292Z,41.3
2017-07-04T09:13:47.094Z,41.4
2017-07-04T09:14:48.901Z,41.4
2017-07-04T09:15:50.404Z,41.4
2017-07-04T09:16:52.540Z,41.8
2017-07-04T09:17:54.351Z,41.3
2017-07-04T09:18:56.153Z,41.7
2017-07-04T09:19:57.956Z,41.5
2017-07-04T09:20:59.401Z,41.6
2017-07-04T09:22:01.184Z,41.5
2017-07-04T09:23:02.982Z,41.4
2017-07-04T09:24:05.120Z,41.4
2017-07-04T09:25:06.898Z,41.4
2017-07-04T09:26:08.703Z,41.3
2017-07-04T09:27:10.172Z,41.3
2017-07-04T09:28:11.622Z,41.6
2017-07-04T09:29:13.088Z,41.3
2017-07-04T09:30:14.891Z,41.3
2017-07-04T09:31:17.030Z,41.4
2017-07-04T09:32:18.834Z,41.4
2017-07-04T09:33:20.635Z,41.3
2017-07-04T09:34:22.415Z,41.4
2017-07-04T09:35:23.882Z,41.5
2017-07-04T09:36:25.685Z,41.4
2017-07-04T09:37:27.155Z,41.3
2017-07-04T09:38:29.291Z,41.4
2017-07-04T09:39:30.759Z,41.7
2017-07-04T09:40:32.559Z,41.4
2017-07-04T09:41:34.025Z,41.3
2017-07-04T09:42:35.829Z,41.4
2017-07-04T09:43:37.966Z,41.3
2017-07-04T09:44:39.766Z,41.3
2017-07-04T09:45:41.547Z,41.6
2017-07-04T09:46:42.992Z,41.4
2017-07-04T09:47:44.435Z,41.4
2017-07-04T09:48:45.915Z,41.4
2017-07-04T09:49:47.720Z,41.3
2017-07-04T09:50:48.828Z,41.5
2017-07-04T09:51:50.631Z,41.2
2017-07-04T09:52:52.433Z,41.3
2017-07-04T09:53:54.239Z,41.5
2017-07-04T09:54:55.707Z,41.6
2017-07-04T09:55:57.155Z,41.3
2017-07-04T09:56:58.595Z,41.3
2017-07-04T09:57:59.710Z,41.4
2017-07-04T09:59:01.211Z,41.6
2017-07-04T10:00:03.012Z,41.5
2017-07-04T10:01:04.128Z,41.5
2017-07-04T10:02:05.927Z,41.6
2017-07-04T10:03:07.732Z,41.1
2017-07-04T10:04:09.537Z,41.6
2017-07-04T10:05:11.340Z,41.3
2017-07-04T10:06:13.145Z,41.5
2017-07-04T10:07:14.930Z,41.7
2017-07-04T10:08:16.737Z,41.4
2017-07-04T10:09:18.871Z,41.2
2017-07-04T10:10:19.981Z,41.7
2017-07-04T10:11:22.120Z,41.4
2017-07-04T10:12:24.256Z,41.5
2017-07-04T10:13:26.398Z,41.3
2017-07-04T10:14:27.866Z,41.4
2017-07-04T10:15:29.323Z,41.5
2017-07-04T10:16:31.125Z,41.4
2017-07-04T10:17:32.573Z,41.3
2017-07-04T10:18:34.359Z,41.5
2017-07-04T10:19:35.802Z,41.5
2017-07-04T10:20:37.604Z,41.1
2017-07-04T10:21:39.405Z,41.4
2017-07-04T10:22:40.878Z,41.7
2017-07-04T10:23:42.344Z,41.2
2017-07-04T10:24:43.792Z,41.4
2017-07-04T10:25:45.596Z,41.3
2017-07-04T10:26:47.377Z,41.5
2017-07-04T10:27:48.497Z,41.4
2017-07-04T10:28:50.634Z,41.1
2017-07-04T10:29:52.438Z,41.3
2017-07-04T10:30:53.914Z,41.4
2017-07-04T10:31:55.715Z,41.3
2017-07-04T10:32:57.521Z,41.4
2017-07-04T10:33:59.657Z,41.5
2017-07-04T10:35:01.460Z,41.8
2017-07-04T10:36:02.906Z,41.4
2017-07-04T10:37:04.728Z,41.5
2017-07-04T10:38:06.172Z,41.5
2017-07-04T10:39:07.643Z,41.4
2017-07-04T10:40:09.112Z,41.2
2017-07-04T10:41:11.245Z,41.5
2017-07-04T10:42:12.694Z,41.5
2017-07-04T10:43:14.828Z,41.5
2017-07-04T10:44:16.609Z,41.4
2017-07-04T10:45:18.078Z,41.2
2017-07-04T10:46:19.860Z,41.1
2017-07-04T10:47:21.667Z,41.5
2017-07-04T10:48:23.467Z,41.3
2017-07-04T10:49:25.274Z,41.5
2017-07-04T10:50:27.415Z,41.3
2017-07-04T10:51:29.211Z,41.4
2017-07-04T10:52:31.014Z,41.3
2017-07-04T10:53:32.484Z,41.3
2017-07-04T10:54:34.285Z,41.5
2017-07-04T10:55:36.068Z,41.2
2017-07-04T10:56:37.183Z,41.5
2017-07-04T10:57:39.321Z,41.2
2017-07-04T10:58:41.468Z,41.4
2017-07-04T10:59:42.926Z,41
2017-07-04T11:00:45.062Z,41.3
2017-07-04T11:01:47.204Z,41.5
2017-07-04T11:02:49.334Z,41
2017-07-04T11:03:51.140Z,41.1
2017-07-04T11:04:52.944Z,41.4
2017-07-04T11:05:54.940Z,41.3
2017-07-04T11:06:56.052Z,41.1
2017-07-04T11:07:58.202Z,41.2
2017-07-04T11:09:00.340Z,41.4
2017-07-04T11:10:01.789Z,41.4
2017-07-04T11:11:03.573Z,41.1
2017-07-04T11:12:05.378Z,41.2
2017-07-04T11:13:07.517Z,41.3
2017-07-04T11:14:08.636Z,41.3
2017-07-04T11:15:10.081Z,41.3
2017-07-04T11:16:12.218Z,41.3
2017-07-04T11:17:14.028Z,41.4
2017-07-04T11:18:14.829Z,41.3
2017-07-04T11:19:16.967Z,41.3
2017-07-04T11:20:18.771Z,41.4
2017-07-04T11:21:20.550Z,41.3
2017-07-04T11:22:22.337Z,41.2
2017-07-04T11:23:24.474Z,41.1
2017-07-04T11:24:26.277Z,41.4
2017-07-04T11:25:27.743Z,41.1
2017-07-04T11:26:28.859Z,41.4
2017-07-04T11:27:30.663Z,41.3
2017-07-04T11:28:32.466Z,41.3
2017-07-04T11:29:33.911Z,41.3
2017-07-04T11:30:35.699Z,41.4
2017-07-04T11:31:37.167Z,41.4
2017-07-04T11:32:38.613Z,41.4
2017-07-04T11:33:40.059Z,41.4
2017-07-04T11:34:41.504Z,41.3
2017-07-04T11:35:43.307Z,41.1
2017-07-04T11:36:45.112Z,41
2017-07-04T11:37:47.252Z,41.5
2017-07-04T11:38:49.032Z,41.2
2017-07-04T11:39:51.173Z,41.1
2017-07-04T11:40:52.974Z,41.5
2017-07-04T11:41:55.112Z,41.2
2017-07-04T11:42:56.584Z,41.4
2017-07-04T11:43:58.362Z,41.2
2017-07-04T11:45:00.163Z,41.2
2017-07-04T11:46:01.967Z,41.3
2017-07-04T11:47:03.756Z,41.4
2017-07-04T11:48:05.548Z,41.6
2017-07-04T11:49:07.028Z,41.3
2017-07-04T11:50:08.135Z,41.7
2017-07-04T11:51:09.608Z,41.3
2017-07-04T11:52:11.741Z,41.6
2017-07-04T11:53:13.187Z,41.1
2017-07-04T11:54:14.990Z,41
2017-07-04T11:55:16.772Z,41.4
2017-07-04T11:56:18.239Z,41.3
2017-07-04T11:57:19.684Z,41.3
2017-07-04T11:58:21.465Z,41.5
2017-07-04T11:59:22.918Z,41.5
2017-07-04T12:00:24.724Z,41.3
2017-07-04T12:01:26.866Z,41.5
2017-07-04T12:02:27.971Z,41.3
2017-07-04T12:03:29.778Z,41
2017-07-04T12:04:31.222Z,41.3
2017-07-04T12:05:32.344Z,41.4
2017-07-04T12:06:33.459Z,41
2017-07-04T12:07:35.240Z,41.3
2017-07-04T12:08:36.687Z,41.4
2017-07-04T12:09:37.816Z,40.9
2017-07-04T12:10:39.285Z,41.1
2017-07-04T12:11:40.736Z,40.9
2017-07-04T12:12:42.516Z,41.4
2017-07-04T12:13:44.654Z,41.1
2017-07-04T12:14:46.437Z,41.5
2017-07-04T12:15:48.240Z,41.5
2017-07-04T12:16:50.044Z,41.5
2017-07-04T12:17:51.486Z,41.3
2017-07-04T12:18:53.624Z,41
2017-07-04T12:19:55.424Z,41.4
2017-07-04T12:20:56.535Z,41.5
2017-07-04T12:21:58.681Z,41.3
2017-07-04T12:23:00.130Z,41.5
2017-07-04T12:24:01.927Z,41.3
2017-07-04T12:25:03.730Z,41.5
2017-07-04T12:26:05.518Z,41.3
2017-07-04T12:27:07.658Z,41.3
2017-07-04T12:28:09.124Z,41.4
2017-07-04T12:29:10.594Z,41.5
2017-07-04T12:30:12.047Z,41.4
2017-07-04T12:31:13.509Z,41.4
2017-07-04T12:32:14.960Z,41.5
2017-07-04T12:33:16.554Z,41.4
2017-07-04T12:34:18.336Z,41.3
2017-07-04T12:35:20.472Z,41.5
2017-07-04T12:36:22.616Z,41.4
2017-07-04T12:37:24.755Z,41.4
2017-07-04T12:38:26.942Z,41.3
2017-07-04T12:39:28.726Z,41.4
2017-07-04T12:40:30.528Z,41.3
2017-07-04T12:41:32.663Z,41.5
2017-07-04T12:42:34.108Z,41.5
2017-07-04T12:43:36.250Z,41.3
2017-07-04T12:44:38.050Z,41.3
2017-07-04T12:45:39.517Z,41.4
2017-07-04T12:46:40.984Z,41.4
2017-07-04T12:47:43.121Z,41.3
2017-07-04T12:48:44.590Z,41.4
2017-07-04T12:49:46.730Z,41.5
2017-07-04T12:50:48.510Z,41.2
2017-07-04T12:51:50.647Z,41.5
2017-07-04T12:52:51.762Z,41.2
2017-07-04T12:53:53.208Z,41.7
2017-07-04T12:54:55.013Z,41.3
2017-07-04T12:55:56.456Z,41.3
2017-07-04T12:56:57.900Z,41.7
2017-07-04T12:57:59.681Z,41.4
2017-07-04T12:59:01.819Z,41.5
2017-07-04T13:00:03.288Z,41.7
2017-07-04T13:01:05.428Z,41.5
2017-07-04T13:02:07.564Z,41.5
2017-07-04T13:03:09.708Z,41.1
2017-07-04T13:04:10.818Z,41.1
2017-07-04T13:05:12.627Z,41.2
2017-07-04T13:06:14.415Z,41.3
2017-07-04T13:07:15.855Z,41.3
2017-07-04T13:08:17.992Z,41.1
2017-07-04T13:09:19.103Z,41.2
2017-07-04T13:10:20.882Z,41.4
2017-07-04T13:11:22.352Z,41.2
2017-07-04T13:12:24.154Z,41
2017-07-04T13:13:25.936Z,41.4
2017-07-04T13:14:28.125Z,41.3
2017-07-04T13:15:29.234Z,41
2017-07-04T13:16:31.371Z,41.4
2017-07-04T13:17:32.823Z,41.4
2017-07-04T13:18:34.289Z,41.5
2017-07-04T13:19:35.737Z,41.4
2017-07-04T13:20:37.517Z,41.4
2017-07-04T13:21:39.319Z,41.4
2017-07-04T13:22:41.126Z,41.4
2017-07-04T13:23:42.927Z,41.5
2017-07-04T13:24:44.394Z,41.8
2017-07-04T13:25:46.202Z,41.8
2017-07-04T13:26:48.337Z,41.4
2017-07-04T13:27:50.478Z,41.5
2017-07-04T13:28:52.278Z,41.4
2017-07-04T13:29:54.414Z,41.4
2017-07-04T13:30:56.553Z,41.5
2017-07-04T13:31:57.665Z,41.7
2017-07-04T13:32:59.132Z,41.4
2017-07-04T13:34:00.915Z,41.4
2017-07-04T13:35:02.735Z,41.4
2017-07-04T13:36:04.202Z,41.4
2017-07-04T13:37:06.001Z,41.4
2017-07-04T13:38:07.805Z,41
2017-07-04T13:39:09.609Z,41
2017-07-04T13:40:11.464Z,41.3
2017-07-04T13:41:13.596Z,41.2
2017-07-04T13:42:14.714Z,41.3
2017-07-04T13:43:16.155Z,41.4
2017-07-04T13:44:17.956Z,41.3
2017-07-04T13:45:19.424Z,41.3
2017-07-04T13:46:21.227Z,41.4